createdAt,value
2022-08-30T00:00:00.834Z,69.47
2022-08-30T00:02:30.336Z,69.76
2022-08-30T00:05:01.631Z,69.87
2022-08-30T00:07:28.825Z,69.36
2022-08-30T00:09:55.754Z,68.45
2022-08-30T00:12:22.801Z,68.84
2022-08-30T00:14:49.763Z,68.77
2022-08-30T00:17:16.746Z,68.77
2022-08-30T00:19:46.655Z,69.05
2022-08-30T00:22:13.655Z,68.71
2022-08-30T00:24:40.814Z,68.46
2022-08-30T00:27:07.745Z,68.98
2022-08-30T00:29:37.280Z,69.37
2022-08-30T00:32:05.692Z,69.70
2022-08-30T00:34:32.939Z,69.95
2022-08-30T00:37:00.243Z,70.07
2022-08-30T00:39:27.258Z,69.85
2022-08-30T00:41:54.331Z,69.76
2022-08-30T00:44:24.208Z,69.74
2022-08-30T00:46:51.131Z,69.48
2022-08-30T00:49:20.944Z,69.69
2022-08-30T00:51:48.449Z,69.04
2022-08-30T00:54:20.122Z,69.77
2022-08-30T00:56:49.174Z,69.01
2022-08-30T00:59:16.434Z,69.13
2022-08-30T01:01:43.799Z,69.26
2022-08-30T01:04:13.614Z,69.00
2022-08-30T01:06:41.847Z,69.26
2022-08-30T01:09:09.245Z,69.85
2022-08-30T01:11:37.965Z,69.54
2022-08-30T01:14:06.858Z,70.05
2022-08-30T01:16:35.917Z,69.68
2022-08-30T01:19:05.431Z,69.89
2022-08-30T01:21:47.428Z,70.17
2022-08-30T01:24:14.978Z,69.98
2022-08-30T01:26:42.090Z,69.66
2022-08-30T01:29:18.195Z,69.66
2022-08-30T01:31:46.168Z,69.87
2022-08-30T01:34:15.384Z,70.01
2022-08-30T01:36:50.473Z,69.72
2022-08-30T01:39:21.004Z,69.83
2022-08-30T01:41:50.437Z,70.30
2022-08-30T01:44:17.698Z,69.64
2022-08-30T01:46:50.081Z,70.04
2022-08-30T01:49:27.402Z,70.79
2022-08-30T01:52:00.961Z,69.91
2022-08-30T01:54:37.013Z,70.18
2022-08-30T01:57:09.932Z,70.75
2022-08-30T01:59:41.045Z,70.58
2022-08-30T02:02:10.733Z,70.81
2022-08-30T02:04:37.633Z,70.58
2022-08-30T02:07:07.705Z,70.23
2022-08-30T02:09:34.917Z,71.20
2022-08-30T02:12:02.210Z,72.05
2022-08-30T02:14:29.078Z,71.00
2022-08-30T02:16:58.676Z,71.02
2022-08-30T02:19:28.321Z,71.38
2022-08-30T02:21:55.460Z,71.88
2022-08-30T02:24:25.251Z,71.87
2022-08-30T02:26:53.320Z,71.97
2022-08-30T02:29:22.481Z,71.57
2022-08-30T02:31:54.377Z,71.79
2022-08-30T02:34:24.505Z,71.33
2022-08-30T02:36:51.685Z,71.61
2022-08-30T02:39:18.573Z,71.51
2022-08-30T02:41:48.391Z,71.90
2022-08-30T02:44:15.870Z,72.54
2022-08-30T02:46:42.859Z,72.39
2022-08-30T02:49:32.756Z,72.68
2022-08-30T02:51:59.261Z,72.51
2022-08-30T02:54:28.718Z,72.43
2022-08-30T02:56:58.734Z,72.77
2022-08-30T02:59:26.862Z,73.44
2022-08-30T03:01:53.771Z,73.31
2022-08-30T03:04:26.528Z,73.00
2022-08-30T03:06:54.299Z,73.04
2022-08-30T03:09:22.218Z,73.13
2022-08-30T03:11:49.236Z,73.69
2022-08-30T03:14:16.213Z,73.47
2022-08-30T03:16:45.825Z,73.59
2022-08-30T03:19:12.871Z,72.91
2022-08-30T03:21:44.904Z,72.40
2022-08-30T03:24:13.484Z,72.10
2022-08-30T03:26:44.302Z,72.33
2022-08-30T03:29:13.520Z,72.21
2022-08-30T03:31:52.445Z,71.43
2022-08-30T03:34:21.940Z,71.18
2022-08-30T03:36:49.851Z,71.14
2022-08-30T03:39:16.801Z,71.72
2022-08-30T03:41:43.761Z,71.29
2022-08-30T03:44:10.705Z,71.17
2022-08-30T03:46:38.555Z,71.70
2022-08-30T03:49:06.550Z,71.33
2022-08-30T03:51:33.883Z,71.38
2022-08-30T03:54:03.899Z,71.36
2022-08-30T03:56:31.165Z,71.53
2022-08-30T03:59:00.603Z,71.50
2022-08-30T04:01:27.721Z,71.45
2022-08-30T04:03:56.618Z,71.53
2022-08-30T04:06:24.561Z,71.72
2022-08-30T04:08:51.853Z,72.16
2022-08-30T04:11:20.613Z,71.71
2022-08-30T04:13:51.967Z,71.40
2022-08-30T04:16:22.979Z,71.22
2022-08-30T04:18:50.021Z,71.71
2022-08-30T04:21:19.769Z,70.92
2022-08-30T04:23:48.818Z,70.94
2022-08-30T04:26:15.938Z,71.94
2022-08-30T04:28:42.958Z,71.61
2022-08-30T04:31:16.568Z,71.77
2022-08-30T04:33:44.501Z,72.00
2022-08-30T04:36:13.831Z,72.63
2022-08-30T04:38:42.597Z,72.96
2022-08-30T04:41:19.013Z,72.77
2022-08-30T04:43:53.024Z,73.16
2022-08-30T04:46:22.352Z,72.91
2022-08-30T04:48:49.664Z,72.88
2022-08-30T04:51:18.725Z,72.51
2022-08-30T04:53:48.674Z,72.91
2022-08-30T04:56:20.164Z,73.24
2022-08-30T04:58:49.022Z,72.74
2022-08-30T05:01:23.881Z,73.14
2022-08-30T05:03:54.910Z,73.15
2022-08-30T05:06:23.843Z,73.63
2022-08-30T05:08:54.370Z,74.78
2022-08-30T05:11:22.083Z,74.84
2022-08-30T05:13:49.870Z,74.54
2022-08-30T05:16:19.536Z,74.03
2022-08-30T05:18:51.851Z,74.33
2022-08-30T05:21:28.321Z,73.97
2022-08-30T05:23:58.252Z,73.61
2022-08-30T05:26:31.444Z,73.45
2022-08-30T05:28:58.776Z,72.91
2022-08-30T05:31:29.825Z,72.60
2022-08-30T05:33:58.052Z,72.87
2022-08-30T05:36:29.574Z,72.98
2022-08-30T05:38:57.117Z,72.60
2022-08-30T05:41:27.303Z,73.86
2022-08-30T05:44:00.184Z,72.85
2022-08-30T05:49:06.555Z,72.89
2022-08-30T05:51:43.074Z,72.51
2022-08-30T05:54:15.041Z,72.06
2022-08-30T05:56:45.300Z,72.47
2022-08-30T05:59:13.701Z,71.87
2022-08-30T06:01:45.009Z,72.04
2022-08-30T06:04:15.042Z,71.36
2022-08-30T06:06:46.594Z,72.28
2022-08-30T06:09:17.665Z,72.22
2022-08-30T06:11:46.189Z,71.60
2022-08-30T06:14:14.160Z,72.18
2022-08-30T06:16:46.681Z,71.47
2022-08-30T06:19:15.458Z,70.59
2022-08-30T06:21:44.094Z,70.29
2022-08-30T06:24:12.069Z,69.83
2022-08-30T06:26:42.434Z,69.59
2022-08-30T06:29:12.424Z,69.55
2022-08-30T06:31:39.426Z,68.16
2022-08-30T06:34:08.806Z,67.85
2022-08-30T06:36:36.438Z,67.80
2022-08-30T06:39:07.505Z,67.37
2022-08-30T06:41:37.287Z,67.59
2022-08-30T06:44:06.586Z,67.08
2022-08-30T06:46:37.431Z,67.24
2022-08-30T06:49:10.140Z,66.58
2022-08-30T06:51:41.207Z,65.96
2022-08-30T06:54:12.107Z,66.37
2022-08-30T06:56:55.239Z,65.55
2022-08-30T06:59:25.914Z,64.83
2022-08-30T07:01:57.523Z,65.19
2022-08-30T07:04:27.224Z,64.41
2022-08-30T07:06:57.350Z,63.87
2022-08-30T07:09:26.973Z,64.25
2022-08-30T07:11:54.455Z,62.89
2022-08-30T07:14:24.052Z,62.32
2022-08-30T07:16:52.275Z,62.16
2022-08-30T07:19:25.053Z,61.45
2022-08-30T07:21:51.977Z,61.19
2022-08-30T07:24:20.471Z,60.73
2022-08-30T07:26:53.634Z,59.91
2022-08-30T07:29:23.661Z,58.77
2022-08-30T07:31:50.665Z,59.26
2022-08-30T07:34:19.287Z,60.08
2022-08-30T07:36:47.400Z,59.81
2022-08-30T07:39:14.295Z,59.91
2022-08-30T07:41:41.281Z,58.40
2022-08-30T07:44:09.029Z,57.43
2022-08-30T07:46:40.388Z,57.22
2022-08-30T07:49:11.535Z,55.44
2022-08-30T07:51:39.259Z,54.66
2022-08-30T07:54:07.115Z,54.36
2022-08-30T07:56:36.278Z,54.38
2022-08-30T07:59:03.752Z,54.87
2022-08-30T08:01:32.731Z,54.77
2022-08-30T08:04:02.344Z,55.11
2022-08-30T08:06:29.788Z,55.62
2022-08-30T08:09:04.517Z,54.81
2022-08-30T08:11:33.964Z,53.88
2022-08-30T08:14:04.637Z,53.64
2022-08-30T08:16:38.446Z,54.30
2022-08-30T08:19:09.224Z,54.98
2022-08-30T08:21:39.587Z,55.45
2022-08-30T08:24:08.966Z,55.55
2022-08-30T08:26:41.023Z,55.88
2022-08-30T08:29:17.208Z,55.90
2022-08-30T08:31:45.817Z,56.48
2022-08-30T08:34:13.421Z,56.47
2022-08-30T08:36:40.947Z,56.05
2022-08-30T08:39:09.400Z,55.96
2022-08-30T08:42:04.691Z,55.59
2022-08-30T08:45:08.757Z,56.06
2022-08-30T08:47:40.450Z,56.31
2022-08-30T08:50:20.090Z,56.66
2022-08-30T08:53:46.154Z,56.89
2022-08-30T08:56:18.673Z,57.80
2022-08-30T08:58:55.775Z,57.23
2022-08-30T09:01:27.839Z,57.83
2022-08-30T09:03:58.006Z,58.10
2022-08-30T09:06:49.292Z,57.88
2022-08-30T09:09:22.396Z,58.93
2022-08-30T09:11:53.892Z,58.95
2022-08-30T09:14:30.063Z,59.47
2022-08-30T09:17:02.762Z,59.49
2022-08-30T09:19:40.059Z,59.08
2022-08-30T09:22:21.799Z,57.70
2022-08-30T09:25:13.794Z,56.69
2022-08-30T09:27:47.380Z,56.56
2022-08-30T09:30:27.705Z,56.19
2022-08-30T09:33:06.122Z,57.40
2022-08-30T09:35:49.908Z,58.06
2022-08-30T09:38:34.149Z,59.04
2022-08-30T09:41:28.278Z,58.83
2022-08-30T09:44:18.150Z,58.85
2022-08-30T09:46:58.684Z,57.73
2022-08-30T09:49:45.526Z,57.05
2022-08-30T09:52:30.057Z,56.80
2022-08-30T09:55:25.918Z,56.04
2022-08-30T09:58:10.088Z,55.67
2022-08-30T10:00:59.416Z,53.74
2022-08-30T10:03:40.852Z,52.84
2022-08-30T10:06:36.306Z,52.89
2022-08-30T10:09:45.458Z,52.98
2022-08-30T10:12:29.213Z,53.17
2022-08-30T10:15:19.405Z,53.05
2022-08-30T10:18:07.719Z,53.36
2022-08-30T10:20:59.118Z,52.02
2022-08-30T10:23:32.743Z,50.49
2022-08-30T10:26:19.265Z,51.28
2022-08-30T10:28:52.310Z,51.26
2022-08-30T10:32:02.230Z,50.34
2022-08-30T10:34:44.139Z,50.40
2022-08-30T10:37:18.149Z,50.24
2022-08-30T10:39:56.432Z,49.98
2022-08-30T10:42:29.137Z,49.07
2022-08-30T10:45:04.920Z,47.97
2022-08-30T10:47:45.615Z,48.05
2022-08-30T10:50:53.641Z,47.02
2022-08-30T10:53:37.198Z,45.15
2022-08-30T10:56:15.070Z,44.26
2022-08-30T10:58:43.341Z,44.04
2022-08-30T11:01:32.136Z,44.08
2022-08-30T11:04:07.974Z,43.89
2022-08-30T11:07:13.853Z,42.37
2022-08-30T11:10:15.242Z,36.64
2022-08-30T11:13:13.428Z,35.35
2022-08-30T11:16:09.864Z,34.22
2022-08-30T11:18:52.062Z,33.62
2022-08-30T11:21:37.987Z,33.78
2022-08-30T11:24:21.840Z,34.99
2022-08-30T11:26:48.634Z,35.66
2022-08-30T11:29:32.715Z,35.01
2022-08-30T11:32:24.280Z,32.16
2022-08-30T11:34:59.854Z,30.21
2022-08-30T11:37:42.250Z,30.92
2022-08-30T11:40:24.613Z,33.65
2022-08-30T11:42:55.447Z,34.23
2022-08-30T11:45:28.084Z,33.86
2022-08-30T11:48:04.367Z,37.17
2022-08-30T11:50:47.786Z,38.26
2022-08-30T11:53:37.423Z,38.39
2022-08-30T11:56:29.970Z,39.17
2022-08-30T11:59:21.782Z,39.26
2022-08-30T12:01:52.176Z,38.56
2022-08-30T12:04:24.654Z,39.56
2022-08-30T12:07:07.980Z,39.87
2022-08-30T12:09:35.256Z,41.27
2022-08-30T12:12:47.663Z,41.05
2022-08-30T12:15:55.987Z,41.64
2022-08-30T12:18:30.682Z,41.82
2022-08-30T12:21:05.430Z,41.63
2022-08-30T12:23:44.245Z,42.11
2022-08-30T12:26:16.748Z,40.86
2022-08-30T12:28:51.863Z,40.86
2022-08-30T12:31:26.709Z,41.53
2022-08-30T12:34:00.816Z,42.52
2022-08-30T12:36:43.383Z,42.63
2022-08-30T12:39:53.605Z,41.28
2022-08-30T12:42:24.491Z,40.86
2022-08-30T12:44:59.922Z,42.45
2022-08-30T12:47:52.085Z,42.11
2022-08-30T12:50:31.471Z,41.25
2022-08-30T12:53:13.887Z,40.47
2022-08-30T12:56:09.280Z,40.80
2022-08-30T12:58:50.837Z,40.92
2022-08-30T13:01:36.132Z,41.12
2022-08-30T13:04:32.438Z,41.66
2022-08-30T13:07:03.894Z,42.40
2022-08-30T13:09:44.471Z,42.34
2022-08-30T13:12:28.417Z,42.18
2022-08-30T13:15:42.038Z,41.84
2022-08-30T13:18:32.931Z,42.11
2022-08-30T13:21:26.078Z,42.38
2022-08-30T13:24:01.686Z,43.46
2022-08-30T13:26:36.041Z,43.97
2022-08-30T13:29:10.297Z,42.87
2022-08-30T13:31:39.893Z,44.05
2022-08-30T13:34:12.339Z,44.23
2022-08-30T13:37:07.477Z,44.38
2022-08-30T13:39:59.166Z,44.61
2022-08-30T13:42:35.222Z,44.58
2022-08-30T13:45:03.711Z,44.45
2022-08-30T13:47:37.687Z,44.50
2022-08-30T13:50:08.602Z,44.60
2022-08-30T13:52:36.773Z,45.13
2022-08-30T13:55:04.218Z,45.29
2022-08-30T14:00:23.549Z,43.49
2022-08-30T14:02:57.730Z,42.34
2022-08-30T14:05:54.589Z,40.12
2022-08-30T14:08:48.533Z,40.47
2022-08-30T14:11:22.390Z,41.32
2022-08-30T14:16:46.519Z,39.38
2022-08-30T14:19:17.950Z,39.28
2022-08-30T14:21:48.901Z,39.44
2022-08-30T14:24:20.219Z,38.60
2022-08-30T14:26:54.246Z,38.76
2022-08-30T14:29:29.957Z,39.27
2022-08-30T14:32:00.515Z,39.38
2022-08-30T14:34:29.854Z,38.83
2022-08-30T14:36:56.829Z,37.18
2022-08-30T14:39:26.790Z,37.34
2022-08-30T14:41:55.756Z,37.96
2022-08-30T14:44:24.151Z,36.74
2022-08-30T14:46:51.837Z,37.17
2022-08-30T14:49:21.019Z,37.56
2022-08-30T14:51:53.482Z,37.11
2022-08-30T14:54:27.286Z,37.44
2022-08-30T14:56:58.115Z,37.80
2022-08-30T14:59:28.726Z,36.86
2022-08-30T15:01:55.717Z,36.93
2022-08-30T15:04:23.143Z,37.18
2022-08-30T15:06:51.017Z,37.19
2022-08-30T15:09:24.645Z,37.25
2022-08-30T15:11:58.709Z,38.13
2022-08-30T15:14:31.953Z,37.46
2022-08-30T15:17:02.760Z,37.93
2022-08-30T15:19:31.466Z,38.33
2022-08-30T15:22:09.312Z,38.43
2022-08-30T15:24:40.815Z,38.62
2022-08-30T15:27:07.752Z,38.20
2022-08-30T15:29:35.045Z,38.88
2022-08-30T15:32:03.954Z,39.04
2022-08-30T15:34:37.665Z,39.60
2022-08-30T15:37:05.120Z,39.20
2022-08-30T15:39:33.340Z,39.47
2022-08-30T15:42:01.666Z,39.66
2022-08-30T15:44:31.354Z,39.99
2022-08-30T15:46:58.755Z,39.62
2022-08-30T15:49:27.985Z,39.81
2022-08-30T15:51:54.916Z,40.23
2022-08-30T15:54:23.703Z,39.86
2022-08-30T15:56:59.002Z,39.95
2022-08-30T15:59:33.156Z,39.84
2022-08-30T16:02:00.249Z,40.74
2022-08-30T16:04:27.372Z,39.75
2022-08-30T16:06:54.706Z,39.64
2022-08-30T16:09:24.927Z,39.78
2022-08-30T16:11:54.060Z,39.85
2022-08-30T16:14:23.994Z,40.56
2022-08-30T16:16:51.896Z,40.16
2022-08-30T16:19:18.901Z,40.25
2022-08-30T16:21:47.440Z,40.24
2022-08-30T16:24:18.125Z,40.25
2022-08-30T16:26:51.931Z,40.05
2022-08-30T16:29:21.372Z,40.52
2022-08-30T16:31:50.871Z,41.19
2022-08-30T16:34:21.966Z,41.01
2022-08-30T16:36:49.213Z,41.44
2022-08-30T16:39:18.965Z,41.83
2022-08-30T16:41:47.578Z,42.49
2022-08-30T16:44:15.899Z,42.43
2022-08-30T16:46:43.156Z,42.41
2022-08-30T16:49:19.400Z,42.69
2022-08-30T16:51:46.614Z,42.52
2022-08-30T16:54:13.961Z,42.74
2022-08-30T16:56:40.886Z,42.58
2022-08-30T16:59:11.219Z,42.13
2022-08-30T17:01:39.568Z,42.24
2022-08-30T17:04:10.447Z,42.01
2022-08-30T17:06:37.657Z,41.92
2022-08-30T17:09:07.106Z,41.44
2022-08-30T17:11:43.301Z,41.66
2022-08-30T17:14:12.797Z,41.25
2022-08-30T17:16:41.544Z,41.12
2022-08-30T17:19:11.686Z,40.73
2022-08-30T17:21:40.989Z,40.23
2022-08-30T17:24:10.257Z,39.52
2022-08-30T17:26:40.053Z,38.67
2022-08-30T17:29:09.497Z,39.33
2022-08-30T17:31:42.969Z,38.76
2022-08-30T17:34:11.697Z,38.63
2022-08-30T17:36:39.015Z,38.49
2022-08-30T17:39:11.151Z,38.93
2022-08-30T17:41:49.921Z,38.57
2022-08-30T17:44:19.779Z,38.46
2022-08-30T17:46:51.760Z,37.82
2022-08-30T17:49:18.792Z,38.08
2022-08-30T17:51:56.272Z,38.13
2022-08-30T17:54:25.997Z,37.98
2022-08-30T17:56:55.123Z,39.49
2022-08-30T17:59:25.724Z,39.13
2022-08-30T18:01:55.167Z,39.25
2022-08-30T18:04:24.743Z,38.70
2022-08-30T18:06:52.711Z,39.26
2022-08-30T18:09:19.997Z,38.95
2022-08-30T18:11:49.395Z,38.74
2022-08-30T18:14:17.265Z,39.13
2022-08-30T18:19:33.067Z,39.83
2022-08-30T18:22:00.325Z,39.46
2022-08-30T18:24:32.902Z,39.81
2022-08-30T18:27:01.995Z,40.15
2022-08-30T18:29:32.298Z,39.75
2022-08-30T18:32:05.943Z,40.28
2022-08-30T18:34:36.322Z,40.64
2022-08-30T18:37:03.312Z,40.71
2022-08-30T18:39:34.413Z,40.99
2022-08-30T18:42:06.173Z,41.80
2022-08-30T18:44:36.534Z,41.42
2022-08-30T18:47:05.669Z,41.86
2022-08-30T18:49:34.700Z,41.65
2022-08-30T18:52:06.575Z,41.68
2022-08-30T18:54:47.289Z,41.70
2022-08-30T18:57:18.891Z,42.60
2022-08-30T18:59:45.822Z,42.83
2022-08-30T19:02:15.832Z,42.52
2022-08-30T19:04:45.498Z,42.96
2022-08-30T19:07:15.958Z,43.45
2022-08-30T19:09:45.501Z,43.34
2022-08-30T19:12:15.535Z,43.40
2022-08-30T19:14:43.187Z,43.97
2022-08-30T19:17:10.838Z,43.85
2022-08-30T19:19:48.845Z,44.17
2022-08-30T19:22:21.484Z,44.72
2022-08-30T19:24:50.255Z,44.92
2022-08-30T19:27:21.425Z,44.94
2022-08-30T19:29:53.697Z,44.50
2022-08-30T19:32:21.696Z,44.92
2022-08-30T19:34:51.743Z,45.15
2022-08-30T19:37:22.452Z,45.53
2022-08-30T19:39:55.138Z,45.57
2022-08-30T19:42:25.240Z,46.05
2022-08-30T19:44:52.779Z,46.29
2022-08-30T19:47:26.561Z,46.73
2022-08-30T19:49:54.385Z,47.31
2022-08-30T19:52:21.435Z,46.78
2022-08-30T19:54:50.590Z,47.14
2022-08-30T19:57:17.562Z,47.23
2022-08-30T19:59:45.183Z,47.57
2022-08-30T20:02:15.173Z,48.03
2022-08-30T20:04:42.513Z,48.26
2022-08-30T20:07:09.859Z,48.42
2022-08-30T20:09:37.380Z,48.83
2022-08-30T20:12:06.922Z,49.24
2022-08-30T20:14:33.871Z,49.44
2022-08-30T20:17:02.328Z,49.98
2022-08-30T20:19:29.671Z,49.55
2022-08-30T20:21:59.330Z,49.50
2022-08-30T20:24:27.246Z,39.27
2022-08-30T20:27:06.249Z,49.89
2022-08-30T20:29:34.397Z,50.01
2022-08-30T20:32:03.179Z,49.77
2022-08-30T20:34:30.185Z,50.06
2022-08-30T20:36:58.599Z,50.55
2022-08-30T20:39:25.946Z,50.47
2022-08-30T20:42:00.093Z,51.37
2022-08-30T20:44:27.087Z,51.60
2022-08-30T20:46:54.206Z,51.51
2022-08-30T20:49:21.445Z,52.03
2022-08-30T20:51:54.200Z,52.65
2022-08-30T20:54:21.864Z,52.38
2022-08-30T20:56:50.030Z,52.63
2022-08-30T20:59:17.208Z,53.40
2022-08-30T21:01:44.620Z,53.20
2022-08-30T21:04:13.267Z,53.85
2022-08-30T21:06:40.188Z,54.31
2022-08-30T21:09:08.892Z,54.09
2022-08-30T21:11:37.395Z,53.72
2022-08-30T21:14:05.022Z,54.53
2022-08-30T21:16:31.999Z,54.32
2022-08-30T21:18:58.888Z,54.10
2022-08-30T21:21:30.400Z,54.25
2022-08-30T21:24:03.005Z,54.52
2022-08-30T21:26:31.412Z,54.56
2022-08-30T21:28:59.462Z,55.09
2022-08-30T21:31:30.360Z,55.08
2022-08-30T21:33:57.526Z,55.24
2022-08-30T21:36:45.618Z,55.32
2022-08-30T21:39:22.749Z,54.94
2022-08-30T21:41:54.515Z,55.49
2022-08-30T21:44:25.610Z,55.45
2022-08-30T21:46:53.794Z,55.92
2022-08-30T21:49:24.852Z,56.13
2022-08-30T21:51:54.729Z,55.99
2022-08-30T21:54:23.435Z,56.31
2022-08-30T21:56:52.768Z,56.19
2022-08-30T21:59:24.736Z,56.52
2022-08-30T22:01:51.888Z,56.76
2022-08-30T22:04:21.056Z,56.93
2022-08-30T22:06:52.043Z,57.17
2022-08-30T22:09:24.460Z,56.76
2022-08-30T22:11:52.357Z,56.71
2022-08-30T22:14:20.782Z,57.34
2022-08-30T22:16:48.870Z,57.67
2022-08-30T22:19:19.763Z,58.13
2022-08-30T22:21:51.986Z,58.34
2022-08-30T22:24:21.796Z,58.86
2022-08-30T22:26:51.516Z,58.28
2022-08-30T22:29:18.587Z,59.11
2022-08-30T22:31:48.125Z,58.71
2022-08-30T22:34:15.045Z,58.93
2022-08-30T22:36:42.056Z,59.40
2022-08-30T22:39:09.677Z,59.23
2022-08-30T22:41:37.892Z,59.48
2022-08-30T22:44:06.358Z,60.24
2022-08-30T22:46:35.085Z,59.65
2022-08-30T22:49:08.135Z,60.70
2022-08-30T22:51:39.483Z,60.69
2022-08-30T22:54:08.188Z,60.73
2022-08-30T22:56:39.489Z,60.59
2022-08-30T22:59:08.961Z,60.84
2022-08-30T23:01:39.987Z,60.69
2022-08-30T23:04:11.524Z,61.21
2022-08-30T23:06:39.162Z,61.81
2022-08-30T23:09:11.371Z,61.69
2022-08-30T23:11:38.632Z,61.41
2022-08-30T23:14:11.608Z,62.04
2022-08-30T23:16:40.705Z,61.83
2022-08-30T23:19:07.663Z,62.31
2022-08-30T23:21:39.563Z,62.12
2022-08-30T23:24:27.871Z,62.08
2022-08-30T23:27:13.176Z,61.99
2022-08-30T23:30:00.208Z,62.56
2022-08-30T23:32:45.326Z,62.79
2022-08-30T23:35:31.910Z,62.91
2022-08-30T23:38:21.004Z,62.59
2022-08-30T23:41:09.275Z,63.62
2022-08-30T23:43:56.054Z,63.14
2022-08-30T23:46:41.842Z,63.01
2022-08-30T23:49:29.770Z,62.97
2022-08-30T23:52:14.962Z,62.81
2022-08-30T23:55:02.394Z,63.84
2022-08-30T23:57:47.557Z,63.78
